Time;durP1;ratioP1;P1;durP2;ratioP2;P2;SDS_P1;SDS_P2;PMS_P1;PMS_P2;Temp;Humidity;BMP_temperature;BMP_pressure;BME280_temperature;BME280_humidity;BME280_pressure;Samples;Min_cycle;Max_cycle;Signal;HPM_P1;HPM_P2
2022/08/14 00:01:35;;;;;;;1.20;1.08;;;19.80;99.30;;;;;;5037576;28;20433;-62
2022/08/14 00:04:03;;;;;;;1.13;1.13;;;19.70;99.40;;;;;;5008174;28;21447;-63
2022/08/14 00:06:50;;;;;;;0.80;0.80;;;19.70;99.60;;;;;;5035889;28;20435;-62
2022/08/14 00:09:17;;;;;;;0.93;0.93;;;19.80;99.80;;;;;;5026880;28;20491;-62
2022/08/14 00:11:46;;;;;;;1.00;1.00;;;19.90;99.90;;;;;;5023905;28;20509;-63
2022/08/14 00:14:12;;;;;;;1.00;1.00;;;19.80;99.90;;;;;;5022576;28;20530;-62
2022/08/14 00:16:43;;;;;;;0.88;0.88;;;19.80;99.90;;;;;;5034732;28;20462;-62
2022/08/14 00:19:11;;;;;;;0.82;0.82;;;19.80;99.90;;;;;;5026412;28;20438;-62
2022/08/14 00:21:50;;;;;;;0.73;0.73;;;19.70;99.90;;;;;;5032230;28;20436;-62
2022/08/14 00:24:21;;;;;;;0.95;0.95;;;19.70;99.90;;;;;;5049420;28;20481;-62
2022/08/14 00:26:55;;;;;;;0.82;0.82;;;19.70;99.90;;;;;;5019034;28;20428;-62
2022/08/14 00:29:21;;;;;;;1.15;1.15;;;19.70;99.90;;;;;;5016626;28;20543;-62
2022/08/14 00:31:51;;;;;;;1.15;1.15;;;19.70;99.90;;;;;;5033722;28;20776;-63
2022/08/14 00:34:23;;;;;;;1.08;1.08;;;19.70;99.90;;;;;;5018715;28;20432;-62
2022/08/14 00:37:12;;;;;;;0.98;0.98;;;19.70;99.90;;;;;;5008428;28;20531;-62
2022/08/14 00:39:39;;;;;;;0.90;0.90;;;19.70;99.90;;;;;;5032280;28;20493;-62
2022/08/14 00:42:08;;;;;;;0.98;0.98;;;19.60;99.90;;;;;;5027117;28;20431;-62
2022/08/14 00:44:47;;;;;;;0.82;0.82;;;19.60;99.90;;;;;;5020768;28;20439;-62
2022/08/14 00:47:16;;;;;;;1.00;1.00;;;19.50;99.90;;;;;;5024287;28;20883;-62
2022/08/14 00:49:44;;;;;;;0.90;0.73;;;19.40;99.90;;;;;;5019262;28;20487;-62
2022/08/14 00:52:15;;;;;;;1.10;1.10;;;19.30;99.90;;;;;;5025999;28;20435;-62
2022/08/14 00:54:45;;;;;;;1.02;0.90;;;19.40;99.90;;;;;;5017889;28;20432;-62
2022/08/14 00:57:12;;;;;;;1.10;1.10;;;19.40;99.90;;;;;;5023773;28;20456;-62
2022/08/14 00:59:40;;;;;;;0.80;0.80;;;19.40;99.90;;;;;;5022490;28;20466;-62
2022/08/14 01:02:07;;;;;;;0.90;0.90;;;19.40;99.90;;;;;;5017773;28;21070;-62
2022/08/14 01:04:35;;;;;;;0.75;0.75;;;19.40;99.90;;;;;;5009641;28;20569;-62
2022/08/14 01:07:19;;;;;;;1.08;0.98;;;19.50;99.90;;;;;;5029815;28;21103;-62
2022/08/14 01:09:54;;;;;;;1.00;1.00;;;19.50;99.90;;;;;;5016500;28;20433;-63
2022/08/14 01:12:22;;;;;;;1.10;1.10;;;19.60;99.90;;;;;;5024031;28;20429;-62
2022/08/14 01:14:56;;;;;;;0.90;0.90;;;19.60;99.90;;;;;;5029322;28;20431;-62
2022/08/14 01:21:02;;;;;;;1.05;1.05;;;19.60;99.90;;;;;;5023023;28;21045;-62
2022/08/14 01:23:12;;;;;;;1.85;1.20;;;19.50;99.90;;;;;;5009686;28;20516;-62
2022/08/14 01:25:45;;;;;;;0.90;0.90;;;19.50;99.90;;;;;;5017176;28;20431;-62
2022/08/14 01:28:12;;;;;;;0.65;0.65;;;19.40;99.90;;;;;;5020014;28;20439;-62
2022/08/14 01:31:04;;;;;;;1.02;1.02;;;19.40;99.90;;;;;;5036398;28;20423;-62
2022/08/14 01:33:32;;;;;;;1.88;1.00;;;19.30;99.90;;;;;;5014468;28;20436;-62
2022/08/14 01:36:19;;;;;;;1.20;1.10;;;19.30;99.90;;;;;;5012582;28;20412;-61
2022/08/14 01:38:56;;;;;;;1.00;1.00;;;19.40;99.90;;;;;;5014285;28;20442;-62
2022/08/14 01:41:26;;;;;;;1.40;1.10;;;19.30;99.90;;;;;;5011670;28;20464;-62
2022/08/14 01:44:00;;;;;;;1.65;1.55;;;19.30;99.90;;;;;;5026906;28;20427;-62
2022/08/14 01:46:31;;;;;;;1.40;1.40;;;19.30;99.90;;;;;;5027935;28;20473;-62
2022/08/14 01:49:06;;;;;;;1.00;1.00;;;19.30;99.90;;;;;;5029962;28;20431;-62
2022/08/14 01:51:33;;;;;;;1.10;1.10;;;19.30;99.90;;;;;;5016388;28;20471;-61
2022/08/14 01:54:13;;;;;;;1.30;1.20;;;19.20;99.90;;;;;;5014403;28;20595;-61
2022/08/14 01:56:43;;;;;;;1.03;0.93;;;19.20;99.90;;;;;;5036118;28;20432;-61
2022/08/14 01:59:16;;;;;;;1.83;1.60;;;19.20;99.90;;;;;;5027370;28;20448;-62
2022/08/14 02:01:51;;;;;;;1.23;1.13;;;19.10;99.90;;;;;;5013519;28;21033;-62
2022/08/14 02:04:29;;;;;;;1.60;1.50;;;19.10;99.90;;;;;;5027051;28;20454;-61
2022/08/14 02:07:25;;;;;;;1.00;1.00;;;19.10;99.90;;;;;;5010973;28;20460;-62
2022/08/14 02:10:13;;;;;;;1.20;1.20;;;19.10;99.90;;;;;;5012602;28;20448;-61
2022/08/14 02:12:47;;;;;;;1.15;1.05;;;19.10;99.90;;;;;;5027609;28;20432;-61
2022/08/14 02:15:23;;;;;;;1.33;1.23;;;19.00;99.90;;;;;;5019044;28;20428;-62
2022/08/14 02:17:50;;;;;;;1.85;1.30;;;19.00;99.90;;;;;;5037952;28;20443;-61
2022/08/14 02:20:19;;;;;;;1.63;1.40;;;19.00;99.90;;;;;;5020826;28;20523;-62
2022/08/14 02:22:51;;;;;;;1.20;1.20;;;19.00;99.90;;;;;;5037643;28;20948;-61
2022/08/14 02:25:21;;;;;;;1.10;1.10;;;19.00;99.90;;;;;;5026873;28;20439;-62
2022/08/14 02:27:48;;;;;;;1.40;1.30;;;19.00;99.90;;;;;;5029766;28;20511;-61
2022/08/14 02:30:35;;;;;;;1.17;1.15;;;18.90;99.90;;;;;;5025179;28;20421;-62
2022/08/14 02:33:06;;;;;;;1.17;1.10;;;18.90;99.90;;;;;;5023494;28;20431;-62
2022/08/14 02:35:33;;;;;;;1.23;1.23;;;18.90;99.90;;;;;;5038684;28;20852;-61
2022/08/14 02:38:07;;;;;;;1.10;1.00;;;18.90;99.90;;;;;;5027511;28;20435;-62
2022/08/14 02:41:00;;;;;;;1.25;1.25;;;18.90;99.90;;;;;;5023804;28;20514;-62
2022/08/14 02:43:29;;;;;;;1.23;1.20;;;18.80;99.90;;;;;;5030000;28;20429;-61
2022/08/14 02:46:05;;;;;;;1.10;1.10;;;18.80;99.90;;;;;;5018663;28;20433;-62
2022/08/14 02:48:38;;;;;;;1.10;1.10;;;18.70;99.90;;;;;;5022146;28;20487;-61
2022/08/14 02:51:25;;;;;;;1.33;1.25;;;18.70;99.90;;;;;;5018427;28;20754;-61
2022/08/14 02:53:57;;;;;;;1.40;1.30;;;18.60;99.90;;;;;;5020203;28;20442;-62
2022/08/14 02:56:26;;;;;;;1.10;1.10;;;18.50;99.90;;;;;;5020924;28;20830;-62
2022/08/14 02:59:15;;;;;;;1.35;1.30;;;18.50;99.90;;;;;;5030926;28;20504;-62
2022/08/14 03:01:46;;;;;;;0.90;0.90;;;18.40;99.90;;;;;;5016781;28;20436;-62
2022/08/14 03:04:17;;;;;;;1.50;1.40;;;18.40;99.90;;;;;;5047438;28;20427;-62
2022/08/14 03:06:47;;;;;;;1.10;1.10;;;18.40;99.90;;;;;;5020301;28;20436;-62
2022/08/14 03:09:34;;;;;;;1.67;1.58;;;18.40;99.90;;;;;;5032891;28;20451;-62
2022/08/14 03:12:25;;;;;;;1.52;1.40;;;18.40;99.90;;;;;;5027040;28;20766;-62
2022/08/14 03:15:01;;;;;;;1.48;1.38;;;18.40;99.90;;;;;;5028076;28;20447;-62
2022/08/14 03:17:28;;;;;;;1.33;1.30;;;18.40;99.90;;;;;;5057542;28;20492;-62
2022/08/14 03:20:09;;;;;;;1.50;1.38;;;18.40;99.90;;;;;;5013195;28;20434;-62
2022/08/14 03:22:38;;;;;;;1.20;1.10;;;18.40;99.90;;;;;;5016725;28;20424;-62
2022/08/14 03:25:11;;;;;;;1.67;1.58;;;18.40;99.90;;;;;;5024725;28;20487;-62
2022/08/14 03:27:38;;;;;;;1.42;1.33;;;18.30;99.90;;;;;;5020661;28;20435;-62
2022/08/14 03:30:23;;;;;;;1.83;1.73;;;18.20;99.90;;;;;;5028817;28;20847;-62
2022/08/14 03:33:07;;;;;;;2.15;1.50;;;18.10;99.90;;;;;;5023807;28;20433;-61
2022/08/14 03:35:37;;;;;;;1.35;1.27;;;18.00;99.90;;;;;;5021921;28;20821;-61
2022/08/14 03:38:24;;;;;;;1.85;1.75;;;18.00;99.90;;;;;;5028898;28;20423;-62
2022/08/14 03:41:15;;;;;;;1.83;1.73;;;17.90;99.90;;;;;;5017749;28;20433;-61
2022/08/14 03:43:47;;;;;;;1.53;1.43;;;17.80;99.90;;;;;;5023086;28;20932;-61
2022/08/14 03:46:36;;;;;;;1.40;1.30;;;17.80;99.90;;;;;;5020297;28;20431;-61
2022/08/14 03:49:23;;;;;;;4.13;1.23;;;17.70;99.90;;;;;;5024844;28;20458;-62
2022/08/14 03:51:56;;;;;;;1.42;1.33;;;17.70;99.90;;;;;;5017430;28;21018;-62
2022/08/14 03:54:26;;;;;;;1.35;1.35;;;17.70;99.90;;;;;;5027765;28;20519;-61
2022/08/14 03:56:53;;;;;;;1.00;1.00;;;17.80;99.90;;;;;;5032618;28;20520;-61
2022/08/14 03:59:20;;;;;;;1.42;1.33;;;17.80;99.90;;;;;;5017203;28;20461;-62
2022/08/14 04:01:48;;;;;;;1.63;1.58;;;17.80;99.90;;;;;;5024544;28;20429;-62
2022/08/14 04:04:27;;;;;;;1.67;1.40;;;17.80;99.90;;;;;;5024743;28;20526;-62
2022/08/14 04:06:54;;;;;;;1.27;1.17;;;17.70;99.90;;;;;;5032099;28;20427;-61
2022/08/14 04:09:25;;;;;;;2.00;1.48;;;17.70;99.90;;;;;;5033169;28;20443;-62
2022/08/14 04:11:53;;;;;;;1.05;1.05;;;17.60;99.90;;;;;;5053514;28;20458;-62
2022/08/14 04:14:22;;;;;;;1.40;1.40;;;17.60;99.90;;;;;;5024831;28;20496;-61
2022/08/14 04:16:49;;;;;;;1.33;1.30;;;17.60;99.90;;;;;;5039466;28;20421;-61
2022/08/14 04:19:18;;;;;;;1.52;1.42;;;17.60;99.90;;;;;;5033337;28;20429;-61
2022/08/14 04:21:45;;;;;;;1.70;1.60;;;17.60;99.90;;;;;;5023443;28;20427;-61
2022/08/14 04:24:32;;;;;;;1.08;1.08;;;17.60;99.90;;;;;;5024071;28;20431;-61
2022/08/14 04:27:07;;;;;;;1.63;1.38;;;17.60;99.90;;;;;;5021234;28;20986;-61
2022/08/14 04:29:37;;;;;;;1.48;1.38;;;17.60;99.90;;;;;;5019041;28;20429;-61
2022/08/14 04:32:09;;;;;;;1.02;1.02;;;17.60;99.90;;;;;;5025424;28;20430;-61
2022/08/14 04:34:55;;;;;;;1.57;1.47;;;17.60;99.90;;;;;;5025128;28;20770;-61
2022/08/14 04:45:44;;;;;;;1.65;1.55;;;17.80;99.90;;;;;;5017527;28;20626;-61
2022/08/14 04:48:19;;;;;;;1.80;1.48;;;17.80;99.90;;;;;;5024035;28;20427;-61
2022/08/14 04:51:09;;;;;;;1.60;1.50;;;17.80;99.90;;;;;;5013859;28;20931;-61
2022/08/14 04:53:40;;;;;;;1.63;1.52;;;17.80;99.90;;;;;;5019463;28;20516;-61
2022/08/14 04:56:14;;;;;;;1.52;1.42;;;17.80;99.90;;;;;;5030800;28;20433;-62
2022/08/14 04:59:05;;;;;;;1.70;1.60;;;17.80;99.90;;;;;;5015937;28;20846;-61
2022/08/14 05:01:42;;;;;;;1.50;1.40;;;17.80;99.90;;;;;;5035785;28;20429;-61
2022/08/14 05:04:16;;;;;;;1.77;1.65;;;17.90;99.90;;;;;;5019616;28;20471;-61
2022/08/14 05:06:47;;;;;;;1.70;1.60;;;17.90;99.90;;;;;;5031211;28;20518;-61
2022/08/14 05:09:16;;;;;;;2.25;1.52;;;18.00;99.90;;;;;;5040613;28;21430;-61
2022/08/14 05:11:44;;;;;;;1.98;1.88;;;18.10;99.90;;;;;;5026318;28;21000;-61
2022/08/14 05:14:13;;;;;;;1.67;1.58;;;18.20;99.90;;;;;;5036193;28;20882;-61
2022/08/14 05:17:00;;;;;;;1.67;1.58;;;18.40;99.90;;;;;;5027203;28;20427;-62
2022/08/14 05:19:28;;;;;;;1.60;1.30;;;18.50;99.90;;;;;;5018529;28;20438;-62
2022/08/14 05:21:58;;;;;;;1.85;1.75;;;18.50;99.90;;;;;;5027939;28;20520;-62
2022/08/14 05:24:47;;;;;;;1.88;1.77;;;18.60;99.90;;;;;;5026177;28;20448;-62
2022/08/14 05:27:19;;;;;;;1.40;1.38;;;18.70;99.90;;;;;;5027757;28;20435;-62
2022/08/14 05:29:54;;;;;;;1.73;1.63;;;18.80;99.90;;;;;;5029497;28;20429;-61
2022/08/14 05:32:25;;;;;;;1.67;1.58;;;18.90;99.90;;;;;;5037702;28;20477;-61
2022/08/14 05:35:03;;;;;;;1.60;1.50;;;19.10;99.90;;;;;;5027545;28;20428;-61
2022/08/14 05:37:30;;;;;;;1.30;1.20;;;19.30;99.90;;;;;;5016249;28;20507;-61
2022/08/14 05:39:58;;;;;;;1.85;1.75;;;19.40;99.90;;;;;;5026830;28;20491;-61
2022/08/14 05:42:26;;;;;;;1.50;1.40;;;19.60;99.90;;;;;;5016150;28;21182;-61
2022/08/14 05:44:59;;;;;;;1.48;1.38;;;19.80;99.90;;;;;;5011681;28;20460;-61
2022/08/14 05:47:26;;;;;;;2.33;1.70;;;20.00;99.90;;;;;;5033455;28;20511;-60
2022/08/14 05:50:06;;;;;;;1.52;1.52;;;20.10;99.90;;;;;;5017239;28;20430;-61
2022/08/14 05:52:49;;;;;;;1.67;1.52;;;20.40;99.90;;;;;;5036531;28;20439;-62
2022/08/14 05:55:17;;;;;;;1.40;1.30;;;21.20;99.90;;;;;;5031658;28;20427;-62
2022/08/14 05:57:53;;;;;;;1.70;1.70;;;21.90;99.90;;;;;;5027550;28;20492;-62
2022/08/14 06:00:29;;;;;;;1.30;1.30;;;22.60;99.90;;;;;;5028219;28;20825;-62
2022/08/14 06:03:16;;;;;;;1.60;1.50;;;23.20;99.90;;;;;;5037993;28;20421;-62
2022/08/14 06:05:44;;;;;;;1.60;1.50;;;23.90;99.90;;;;;;5031287;28;20463;-62
2022/08/14 06:08:23;;;;;;;1.40;1.38;;;24.20;99.90;;;;;;5042405;28;20429;-62
2022/08/14 06:11:07;;;;;;;1.60;1.50;;;24.70;99.90;;;;;;5013156;28;20436;-62
2022/08/14 06:13:39;;;;;;;1.50;1.50;;;24.80;99.90;;;;;;5028227;28;20502;-62
2022/08/14 06:16:11;;;;;;;1.95;1.85;;;25.20;99.90;;;;;;5024877;28;20438;-62
2022/08/14 06:18:38;;;;;;;1.20;1.20;;;25.40;99.90;;;;;;5018398;28;20430;-61
2022/08/14 06:21:05;;;;;;;1.23;1.23;;;25.70;99.90;;;;;;5024274;28;20479;-62
2022/08/14 06:23:39;;;;;;;2.08;1.98;;;25.70;99.90;;;;;;5041604;28;20440;-62
2022/08/14 06:26:06;;;;;;;1.75;1.65;;;25.80;99.90;;;;;;5026578;28;20435;-62
2022/08/14 06:28:32;;;;;;;2.15;2.05;;;25.70;99.90;;;;;;5026558;28;20439;-62
2022/08/14 06:31:00;;;;;;;2.25;2.15;;;25.60;99.90;;;;;;5019044;28;20426;-62
2022/08/14 06:33:26;;;;;;;4.10;2.33;;;25.70;99.90;;;;;;5030283;28;20490;-62
2022/08/14 06:36:17;;;;;;;2.17;1.97;;;26.10;99.90;;;;;;5022855;28;20437;-62
2022/08/14 06:38:44;;;;;;;2.15;2.05;;;26.60;99.90;;;;;;5023142;28;20500;-62
2022/08/14 06:41:18;;;;;;;2.00;1.90;;;27.00;99.90;;;;;;5022429;28;20431;-63
2022/08/14 06:43:46;;;;;;;2.33;2.13;;;27.10;99.90;;;;;;5032202;28;20434;-61
2022/08/14 06:46:16;;;;;;;1.80;1.70;;;27.20;99.90;;;;;;5021697;28;20990;-63
2022/08/14 06:49:00;;;;;;;1.42;1.42;;;27.30;99.90;;;;;;5027249;28;20439;-63
2022/08/14 06:51:27;;;;;;;1.48;1.48;;;27.40;99.90;;;;;;5023641;28;20441;-62
2022/08/14 06:54:11;;;;;;;1.90;1.80;;;27.20;99.90;;;;;;5025777;28;20462;-58
2022/08/14 06:56:39;;;;;;;1.48;1.38;;;27.20;99.90;;;;;;5025380;28;20430;-58
2022/08/14 06:59:12;;;;;;;1.40;1.30;;;27.30;99.90;;;;;;5020195;28;20444;-57
2022/08/14 07:07:18;;;;;;;1.42;1.33;;;27.30;99.90;;;;;;5016011;28;20438;-58
2022/08/14 07:09:45;;;;;;;1.50;1.40;;;26.90;99.90;;;;;;5023452;28;20435;-57
2022/08/14 07:12:17;;;;;;;1.20;1.10;;;26.70;99.90;;;;;;5019230;28;20505;-57
2022/08/14 07:15:05;;;;;;;1.70;1.60;;;26.50;99.90;;;;;;5019070;28;20564;-57
2022/08/14 07:17:32;;;;;;;1.48;1.48;;;26.70;99.90;;;;;;5019411;28;20426;-57
2022/08/14 07:20:03;;;;;;;1.70;1.60;;;26.80;99.90;;;;;;5013479;28;20499;-58
2022/08/14 07:22:33;;;;;;;1.48;1.48;;;26.90;99.90;;;;;;5020957;28;20432;-57
2022/08/14 07:25:19;;;;;;;1.55;1.42;;;27.20;99.90;;;;;;5025892;28;20750;-57
2022/08/14 07:27:46;;;;;;;1.52;1.42;;;27.50;99.90;;;;;;5023017;28;20508;-58
2022/08/14 07:30:13;;;;;;;1.27;1.27;;;27.60;99.90;;;;;;5011933;28;20518;-57
2022/08/14 07:33:00;;;;;;;1.30;1.30;;;27.90;99.90;;;;;;5009821;28;20420;-57
2022/08/14 07:35:27;;;;;;;1.73;1.63;;;27.90;99.50;;;;;;5013612;28;20549;-57
2022/08/14 07:38:17;;;;;;;1.60;1.50;;;27.90;99.10;;;;;;5033016;28;20464;-57
2022/08/14 07:40:47;;;;;;;1.87;1.77;;;27.60;99.20;;;;;;5023501;28;20474;-57
2022/08/14 07:43:18;;;;;;;1.67;1.67;;;27.70;99.60;;;;;;5015970;28;20452;-57
2022/08/14 07:45:47;;;;;;;1.70;1.60;;;27.90;99.30;;;;;;5015253;28;20553;-57
2022/08/14 07:48:19;;;;;;;1.60;1.50;;;28.30;99.00;;;;;;5021113;28;20427;-57
2022/08/14 07:50:52;;;;;;;1.80;1.70;;;28.30;98.80;;;;;;5010365;28;20434;-57
2022/08/14 07:53:28;;;;;;;2.10;1.90;;;28.60;98.50;;;;;;5022237;28;20455;-57
2022/08/14 07:55:59;;;;;;;1.98;1.70;;;28.80;98.10;;;;;;5011121;28;20442;-58
2022/08/14 07:58:46;;;;;;;1.92;1.83;;;29.10;97.80;;;;;;5019623;28;20430;-57
2022/08/14 08:01:19;;;;;;;2.33;2.22;;;29.30;96.80;;;;;;5016004;28;20449;-57
2022/08/14 08:03:48;;;;;;;2.20;2.10;;;28.90;97.00;;;;;;5016585;28;20441;-58
2022/08/14 08:06:23;;;;;;;2.55;2.35;;;29.00;97.30;;;;;;5023670;28;20430;-58
2022/08/14 08:08:54;;;;;;;3.20;2.92;;;29.50;96.40;;;;;;5016518;28;20461;-57
2022/08/14 08:11:32;;;;;;;3.37;3.07;;;29.40;96.50;;;;;;5014503;28;20573;-57
2022/08/14 08:14:09;;;;;;;3.10;2.75;;;28.70;96.10;;;;;;5015800;28;20525;-58
2022/08/14 08:16:47;;;;;;;4.20;3.80;;;28.80;96.40;;;;;;5020784;28;20522;-58
2022/08/14 08:19:17;;;;;;;3.53;2.78;;;29.20;96.60;;;;;;5021140;28;20440;-57
2022/08/14 08:21:45;;;;;;;2.92;2.60;;;28.90;96.80;;;;;;5012336;28;20473;-58
2022/08/14 08:24:14;;;;;;;3.95;3.20;;;29.50;96.60;;;;;;5025814;28;20436;-58
2022/08/14 08:26:46;;;;;;;2.10;2.00;;;29.90;95.70;;;;;;5016821;28;20434;-58
2022/08/14 08:29:21;;;;;;;2.17;2.08;;;30.40;95.60;;;;;;5015523;28;20852;-58
2022/08/14 08:31:54;;;;;;;2.28;2.10;;;30.60;94.80;;;;;;5028862;28;20419;-57
2022/08/14 08:34:28;;;;;;;1.80;1.70;;;30.60;94.30;;;;;;5019634;28;20434;-58
2022/08/14 08:36:57;;;;;;;1.90;1.80;;;30.80;94.10;;;;;;5050639;28;20541;-59
2022/08/14 08:39:24;;;;;;;1.85;1.75;;;30.40;94.30;;;;;;5019123;28;20512;-58
2022/08/14 08:41:56;;;;;;;2.20;2.10;;;30.50;94.30;;;;;;5016669;28;20438;-58
2022/08/14 08:44:29;;;;;;;1.83;1.73;;;29.50;94.60;;;;;;5019996;28;21314;-58
2022/08/14 08:47:04;;;;;;;1.67;1.58;;;29.80;94.20;;;;;;5021956;28;20589;-58
2022/08/14 08:49:41;;;;;;;1.70;1.60;;;29.60;94.70;;;;;;5018423;28;20490;-58
2022/08/14 08:52:29;;;;;;;1.60;1.50;;;30.20;94.70;;;;;;5023035;28;20459;-58
2022/08/14 08:54:59;;;;;;;1.17;1.17;;;30.80;93.90;;;;;;5022640;28;20443;-58
2022/08/14 08:57:38;;;;;;;1.30;1.30;;;31.40;93.20;;;;;;5020169;28;20533;-58
2022/08/14 09:00:14;;;;;;;1.70;1.60;;;31.60;92.70;;;;;;5022569;28;20440;-58
2022/08/14 09:02:53;;;;;;;1.50;1.45;;;31.20;92.40;;;;;;5019429;28;20441;-58
2022/08/14 09:05:22;;;;;;;1.10;1.10;;;30.90;92.60;;;;;;5025035;28;20521;-58
2022/08/14 09:07:49;;;;;;;1.38;1.38;;;30.90;92.90;;;;;;5019062;28;20442;-58
2022/08/14 09:10:22;;;;;;;1.10;1.10;;;31.10;92.60;;;;;;5023164;28;21013;-58
2022/08/14 09:12:55;;;;;;;1.15;1.15;;;31.20;92.90;;;;;;5021671;28;20426;-58
2022/08/14 09:15:21;;;;;;;1.08;1.08;;;31.60;92.10;;;;;;5022069;28;20437;-58
2022/08/14 09:17:50;;;;;;;1.50;1.50;;;32.00;91.40;;;;;;5027659;28;20452;-58
2022/08/14 09:20:17;;;;;;;1.30;1.30;;;32.10;91.50;;;;;;5024329;28;20492;-58
2022/08/14 09:22:53;;;;;;;1.13;1.13;;;32.10;91.40;;;;;;5029583;28;20938;-59
2022/08/14 09:25:21;;;;;;;1.17;1.17;;;32.20;91.00;;;;;;5029717;28;20447;-58
2022/08/14 09:28:11;;;;;;;1.42;1.33;;;31.80;91.00;;;;;;5026639;28;20933;-58
2022/08/14 09:30:55;;;;;;;1.40;1.30;;;31.90;90.70;;;;;;5026004;28;20471;-59
2022/08/14 09:33:41;;;;;;;1.20;1.20;;;32.20;90.80;;;;;;5024329;28;20431;-59
2022/08/14 09:36:50;;;;;;;1.37;1.27;;;32.40;90.40;;;;;;5022593;28;20443;-58
2022/08/14 09:39:44;;;;;;;1.55;1.45;;;31.90;90.60;;;;;;5016880;28;20432;-58
2022/08/14 09:42:46;;;;;;;1.27;1.27;;;31.50;90.80;;;;;;5018141;28;20442;-58
2022/08/14 09:45:34;;;;;;;1.60;1.50;;;30.80;91.30;;;;;;5025440;28;20462;-59
2022/08/14 09:48:22;;;;;;;1.30;1.30;;;31.40;91.20;;;;;;5023657;28;20453;-58
2022/08/14 09:50:57;;;;;;;1.60;1.52;;;31.60;90.40;;;;;;5023722;28;20444;-58
2022/08/14 09:53:31;;;;;;;1.63;1.52;;;31.00;88.30;;;;;;5019638;28;20445;-58
2022/08/14 09:56:18;;;;;;;1.42;1.33;;;30.60;90.00;;;;;;5025579;28;20424;-58
2022/08/14 09:59:08;;;;;;;1.52;1.52;;;30.70;90.30;;;;;;5024954;28;20513;-58
2022/08/14 10:01:39;;;;;;;1.70;1.60;;;30.90;90.10;;;;;;5023065;28;20463;-58
2022/08/14 10:04:18;;;;;;;1.40;1.30;;;31.40;89.80;;;;;;5037614;28;20438;-59
2022/08/14 10:07:04;;;;;;;1.63;1.52;;;31.80;88.20;;;;;;5024174;28;20497;-59
2022/08/14 10:09:31;;;;;;;1.43;1.40;;;31.70;88.20;;;;;;5024586;28;20431;-59
2022/08/14 10:12:00;;;;;;;1.45;1.45;;;32.10;88.80;;;;;;5030700;28;20429;-59
2022/08/14 10:14:33;;;;;;;1.65;1.55;;;32.20;87.60;;;;;;5020023;28;20442;-59
2022/08/14 10:17:04;;;;;;;1.70;1.60;;;31.50;87.30;;;;;;5014265;28;20455;-59
2022/08/14 10:19:45;;;;;;;2.30;2.10;;;31.70;87.20;;;;;;5019471;28;20435;-59
2022/08/14 10:22:12;;;;;;;2.10;1.90;;;32.10;87.70;;;;;;5021362;28;20474;-59
2022/08/14 10:25:16;;;;;;;1.70;1.60;;;32.00;87.40;;;;;;5022213;28;20770;-59
2022/08/14 10:27:49;;;;;;;1.63;1.58;;;32.30;86.30;;;;;;5027538;28;20440;-59
2022/08/14 10:30:22;;;;;;;1.58;1.48;;;32.00;86.00;;;;;;5024036;28;20431;-59
2022/08/14 10:32:53;;;;;;;1.30;1.30;;;31.70;85.50;;;;;;5019491;28;20428;-59
2022/08/14 10:35:24;;;;;;;1.90;1.80;;;32.10;85.20;;;;;;5019138;28;20931;-59
2022/08/14 10:37:59;;;;;;;1.67;1.58;;;32.80;87.20;;;;;;5022504;28;20808;-59
2022/08/14 10:40:30;;;;;;;1.48;1.38;;;32.90;85.50;;;;;;5021056;28;20443;-60
2022/08/14 10:43:20;;;;;;;1.33;1.33;;;33.20;83.10;;;;;;5024315;28;20452;-59
2022/08/14 10:45:59;;;;;;;1.50;1.50;;;33.30;83.50;;;;;;5024646;28;20795;-60
2022/08/14 10:49:03;;;;;;;1.53;1.50;;;33.10;83.90;;;;;;5030231;28;20427;-60
2022/08/14 10:51:34;;;;;;;1.52;1.45;;;32.60;85.70;;;;;;5030429;28;20427;-60
2022/08/14 10:54:09;;;;;;;1.10;1.10;;;33.20;85.10;;;;;;5024516;28;20475;-60
2022/08/14 10:57:23;;;;;;;1.37;1.37;;;33.90;82.40;;;;;;5034139;28;20426;-60
2022/08/14 10:59:54;;;;;;;1.00;1.00;;;34.00;81.60;;;;;;5020036;28;20803;-60
2022/08/14 11:02:35;;;;;;;0.90;0.90;;;33.00;80.90;;;;;;5030260;28;20503;-59
2022/08/14 11:05:23;;;;;;;1.10;1.10;;;32.70;81.80;;;;;;5016639;28;21005;-59
2022/08/14 11:07:54;;;;;;;1.10;1.10;;;32.30;82.60;;;;;;5018761;28;20549;-58
2022/08/14 11:10:26;;;;;;;0.90;0.90;;;32.90;82.90;;;;;;5029263;28;20428;-59
2022/08/14 11:13:00;;;;;;;0.80;0.80;;;32.50;82.50;;;;;;5020974;28;20571;-59
2022/08/14 11:15:30;;;;;;;0.82;0.82;;;32.70;83.30;;;;;;5023481;28;20834;-58
2022/08/14 11:17:59;;;;;;;1.10;1.10;;;32.30;82.80;;;;;;5021830;28;20495;-58
2022/08/14 11:20:28;;;;;;;1.00;1.00;;;32.10;82.40;;;;;;5027570;28;20453;-64
2022/08/14 11:22:59;;;;;;;1.17;1.17;;;32.60;83.00;;;;;;5018790;28;20531;-64
2022/08/14 11:25:30;;;;;;;1.00;0.90;;;32.50;82.50;;;;;;5017325;28;20471;-64
2022/08/14 11:28:12;;;;;;;1.00;1.00;;;32.20;82.50;;;;;;5048463;28;20930;-64
2022/08/14 11:30:47;;;;;;;0.90;0.90;;;32.80;83.50;;;;;;5020251;28;20505;-64
2022/08/14 11:33:27;;;;;;;0.98;0.98;;;33.50;81.40;;;;;;5017354;28;20427;-66
2022/08/14 11:35:57;;;;;;;1.02;1.02;;;33.30;80.90;;;;;;5018991;28;20470;-66
2022/08/14 11:38:27;;;;;;;0.98;0.98;;;33.50;81.10;;;;;;5012985;28;20481;-64
2022/08/14 11:40:57;;;;;;;0.90;0.90;;;34.10;80.20;;;;;;5020289;28;20530;-66
2022/08/14 11:43:25;;;;;;;0.82;0.82;;;34.60;79.70;;;;;;5022564;28;20467;-64
2022/08/14 11:45:56;;;;;;;0.80;0.80;;;34.60;78.90;;;;;;5018424;28;20439;-65
2022/08/14 11:48:25;;;;;;;0.80;0.80;;;34.40;79.40;;;;;;5023060;28;20426;-69
2022/08/14 11:51:38;;;;;;;0.90;0.90;;;33.40;78.10;;;;;;5020019;28;20423;-66
2022/08/14 11:54:21;;;;;;;0.80;0.80;;;33.20;79.60;;;;;;5015340;28;20526;-65
2022/08/14 11:57:01;;;;;;;1.00;1.00;;;33.70;80.70;;;;;;5008468;28;20438;-65
2022/08/14 11:59:32;;;;;;;0.90;0.90;;;34.40;78.10;;;;;;5021216;28;20513;-67
2022/08/14 12:02:14;;;;;;;0.70;0.70;;;34.40;77.70;;;;;;5018916;28;20451;-66
2022/08/14 12:05:02;;;;;;;1.00;1.00;;;34.70;77.60;;;;;;5020273;28;21170;-64
2022/08/14 12:07:35;;;;;;;0.98;0.98;;;34.10;78.10;;;;;;5014733;28;20517;-64
2022/08/14 12:10:09;;;;;;;1.00;0.90;;;34.00;77.80;;;;;;5018530;28;20436;-65
2022/08/14 12:12:56;;;;;;;0.70;0.70;;;33.90;78.30;;;;;;5014330;28;21442;-64
2022/08/14 12:15:32;;;;;;;0.70;0.70;;;34.20;77.10;;;;;;5020019;28;20426;-65
2022/08/14 12:18:01;;;;;;;0.90;0.90;;;34.20;77.90;;;;;;5013172;28;20434;-64
2022/08/14 12:20:42;;;;;;;0.77;0.77;;;34.50;77.10;;;;;;5016095;28;20440;-67
2022/08/14 12:23:24;;;;;;;0.88;0.88;;;34.50;77.80;;;;;;5013127;28;20504;-65
2022/08/14 12:26:09;;;;;;;0.95;0.95;;;34.40;77.10;;;;;;5014465;28;20442;-65
2022/08/14 12:29:10;;;;;;;0.98;0.98;;;34.50;77.10;;;;;;5009505;28;20437;-65
2022/08/14 12:31:40;;;;;;;0.80;0.80;;;34.70;76.90;;;;;;5027595;28;20433;-65
2022/08/14 12:34:14;;;;;;;1.00;1.00;;;34.50;76.90;;;;;;5038942;28;20434;-65
2022/08/14 12:37:05;;;;;;;0.80;0.80;;;34.50;77.20;;;;;;5032810;28;20887;-66
2022/08/14 12:39:32;;;;;;;0.70;0.70;;;34.60;78.40;;;;;;5021972;28;20443;-65
2022/08/14 12:42:06;;;;;;;1.00;1.00;;;34.90;76.70;;;;;;5015896;28;20436;-65
2022/08/14 12:44:38;;;;;;;0.90;0.90;;;34.80;75.10;;;;;;5027290;28;20477;-66
2022/08/14 12:47:13;;;;;;;0.80;0.80;;;34.30;75.30;;;;;;5026101;28;20434;-65
2022/08/14 12:49:52;;;;;;;0.80;0.80;;;34.20;76.30;;;;;;5020579;28;20431;-65
2022/08/14 12:52:40;;;;;;;0.70;0.60;;;34.00;76.50;;;;;;5018948;28;20438;-64
2022/08/14 12:55:27;;;;;;;0.77;0.77;;;34.80;76.30;;;;;;5029374;28;20921;-65
2022/08/14 12:58:16;;;;;;;0.93;0.93;;;35.30;74.70;;;;;;5006279;28;20430;-64
2022/08/14 13:01:04;;;;;;;0.60;0.60;;;35.30;74.00;;;;;;5037671;28;20409;-65
2022/08/14 13:03:46;;;;;;;1.55;0.80;;;35.50;74.80;;;;;;5011934;28;20450;-63
2022/08/14 13:06:18;;;;;;;0.80;0.80;;;35.70;74.70;;;;;;5019403;28;20442;-65
2022/08/14 13:08:45;;;;;;;0.90;0.90;;;35.90;73.70;;;;;;5018060;28;20757;-65
2022/08/14 13:11:20;;;;;;;0.90;0.90;;;36.00;73.90;;;;;;5015259;28;20440;-66
2022/08/14 13:13:56;;;;;;;0.73;0.73;;;35.80;73.40;;;;;;5011736;28;20428;-65
2022/08/14 13:16:27;;;;;;;0.90;0.90;;;36.10;73.50;;;;;;5018985;28;20905;-65
2022/08/14 13:19:08;;;;;;;0.80;0.80;;;34.90;73.20;;;;;;5024334;28;20425;-65
2022/08/14 13:21:38;;;;;;;0.70;0.70;;;33.70;75.30;;;;;;5015364;28;22738;-64
2022/08/14 13:24:25;;;;;;;0.80;0.80;;;33.60;75.70;;;;;;5013572;28;20435;-65
2022/08/14 13:26:57;;;;;;;0.82;0.82;;;34.50;74.70;;;;;;5013109;28;20514;-65
2022/08/14 13:29:27;;;;;;;0.98;0.98;;;35.40;74.90;;;;;;5017683;28;20478;-65
2022/08/14 13:31:57;;;;;;;0.88;0.88;;;36.00;72.20;;;;;;5017601;28;21025;-66
2022/08/14 13:34:28;;;;;;;0.80;0.80;;;36.60;71.50;;;;;;5020900;28;20438;-66
2022/08/14 13:36:57;;;;;;;0.67;0.67;;;36.10;72.10;;;;;;5017890;28;21011;-64
2022/08/14 13:39:31;;;;;;;0.90;0.90;;;36.40;71.40;;;;;;5016180;28;20436;-64
2022/08/14 13:42:08;;;;;;;0.60;0.60;;;36.90;71.60;;;;;;5020689;28;20423;-65
2022/08/14 13:44:40;;;;;;;0.80;0.80;;;36.90;70.90;;;;;;5010405;28;20510;-66
2022/08/14 13:47:09;;;;;;;1.05;1.05;;;36.30;71.20;;;;;;5014697;28;20431;-65